sensor_id;sensor_type;location;lat;lon;timestamp;P1;durP1;ratioP1;P2;durP2;ratioP2
35961;SDS011;22044;48.298;10.008;2023-11-19T00:02:25;3.90;;;3.50;;
35961;SDS011;22044;48.298;10.008;2023-11-19T00:05:11;4.77;;;3.70;;
35961;SDS011;22044;48.298;10.008;2023-11-19T00:07:57;3.40;;;3.10;;
35961;SDS011;22044;48.298;10.008;2023-11-19T00:10:43;4.10;;;3.70;;
35961;SDS011;22044;48.298;10.008;2023-11-19T00:13:31;4.00;;;3.60;;
35961;SDS011;22044;48.298;10.008;2023-11-19T00:16:16;4.63;;;3.70;;
35961;SDS011;22044;48.298;10.008;2023-11-19T00:19:02;4.00;;;3.60;;
35961;SDS011;22044;48.298;10.008;2023-11-19T00:21:49;4.97;;;3.60;;
35961;SDS011;22044;48.298;10.008;2023-11-19T00:24:34;9.00;;;4.07;;
35961;SDS011;22044;48.298;10.008;2023-11-19T00:27:20;4.63;;;3.73;;
35961;SDS011;22044;48.298;10.008;2023-11-19T00:30:07;4.70;;;4.10;;
35961;SDS011;22044;48.298;10.008;2023-11-19T00:32:53;6.93;;;4.30;;
35961;SDS011;22044;48.298;10.008;2023-11-19T00:35:38;4.73;;;4.20;;
35961;SDS011;22044;48.298;10.008;2023-11-19T00:38:24;4.00;;;3.70;;
35961;SDS011;22044;48.298;10.008;2023-11-19T00:41:10;4.07;;;3.73;;
35961;SDS011;22044;48.298;10.008;2023-11-19T00:43:55;5.00;;;4.30;;
35961;SDS011;22044;48.298;10.008;2023-11-19T00:46:43;5.80;;;4.53;;
35961;SDS011;22044;48.298;10.008;2023-11-19T00:49:28;4.87;;;4.43;;
35961;SDS011;22044;48.298;10.008;2023-11-19T00:52:14;5.47;;;4.43;;
35961;SDS011;22044;48.298;10.008;2023-11-19T00:55:00;4.90;;;4.27;;
35961;SDS011;22044;48.298;10.008;2023-11-19T00:57:45;4.83;;;4.33;;
35961;SDS011;22044;48.298;10.008;2023-11-19T01:00:31;8.67;;;4.73;;
35961;SDS011;22044;48.298;10.008;2023-11-19T01:03:18;7.33;;;4.73;;
35961;SDS011;22044;48.298;10.008;2023-11-19T01:06:04;7.40;;;4.93;;
35961;SDS011;22044;48.298;10.008;2023-11-19T01:08:52;6.87;;;5.53;;
35961;SDS011;22044;48.298;10.008;2023-11-19T01:11:37;5.47;;;4.90;;
35961;SDS011;22044;48.298;10.008;2023-11-19T01:14:23;6.50;;;4.77;;
35961;SDS011;22044;48.298;10.008;2023-11-19T01:17:09;5.67;;;4.97;;
35961;SDS011;22044;48.298;10.008;2023-11-19T01:19:56;6.10;;;5.50;;
35961;SDS011;22044;48.298;10.008;2023-11-19T01:22:42;6.40;;;5.63;;
35961;SDS011;22044;48.298;10.008;2023-11-19T01:25:27;6.07;;;5.47;;
35961;SDS011;22044;48.298;10.008;2023-11-19T01:28:13;7.13;;;5.87;;
35961;SDS011;22044;48.298;10.008;2023-11-19T01:30:58;5.70;;;5.20;;
35961;SDS011;22044;48.298;10.008;2023-11-19T01:33:44;6.60;;;5.90;;
35961;SDS011;22044;48.298;10.008;2023-11-19T01:36:31;6.60;;;6.00;;
35961;SDS011;22044;48.298;10.008;2023-11-19T01:39:17;6.87;;;6.00;;
35961;SDS011;22044;48.298;10.008;2023-11-19T01:42:04;6.10;;;5.47;;
35961;SDS011;22044;48.298;10.008;2023-11-19T01:44:59;7.80;;;6.40;;
35961;SDS011;22044;48.298;10.008;2023-11-19T01:47:46;7.40;;;6.20;;
35961;SDS011;22044;48.298;10.008;2023-11-19T01:50:31;6.53;;;5.80;;
35961;SDS011;22044;48.298;10.008;2023-11-19T01:53:19;6.90;;;6.20;;
35961;SDS011;22044;48.298;10.008;2023-11-19T01:56:05;6.93;;;5.77;;
35961;SDS011;22044;48.298;10.008;2023-11-19T01:58:54;6.73;;;6.03;;
35961;SDS011;22044;48.298;10.008;2023-11-19T02:01:41;6.50;;;5.70;;
35961;SDS011;22044;48.298;10.008;2023-11-19T02:04:26;6.47;;;5.67;;
35961;SDS011;22044;48.298;10.008;2023-11-19T02:07:12;6.40;;;5.80;;
35961;SDS011;22044;48.298;10.008;2023-11-19T02:10:00;6.40;;;5.63;;
35961;SDS011;22044;48.298;10.008;2023-11-19T02:12:45;6.70;;;6.00;;
35961;SDS011;22044;48.298;10.008;2023-11-19T02:15:31;6.40;;;5.80;;
35961;SDS011;22044;48.298;10.008;2023-11-19T02:18:17;6.70;;;6.00;;
35961;SDS011;22044;48.298;10.008;2023-11-19T02:21:03;6.30;;;5.70;;
35961;SDS011;22044;48.298;10.008;2023-11-19T02:23:50;5.60;;;5.03;;
35961;SDS011;22044;48.298;10.008;2023-11-19T02:26:39;6.47;;;5.07;;
35961;SDS011;22044;48.298;10.008;2023-11-19T02:29:33;6.30;;;5.70;;
35961;SDS011;22044;48.298;10.008;2023-11-19T02:32:19;6.27;;;5.47;;
35961;SDS011;22044;48.298;10.008;2023-11-19T02:35:05;5.80;;;5.27;;
35961;SDS011;22044;48.298;10.008;2023-11-19T02:37:52;6.73;;;5.77;;
35961;SDS011;22044;48.298;10.008;2023-11-19T02:40:39;6.20;;;5.57;;
35961;SDS011;22044;48.298;10.008;2023-11-19T02:43:24;6.70;;;5.73;;
35961;SDS011;22044;48.298;10.008;2023-11-19T02:46:11;5.97;;;5.37;;
35961;SDS011;22044;48.298;10.008;2023-11-19T02:48:57;6.97;;;5.20;;
35961;SDS011;22044;48.298;10.008;2023-11-19T02:51:43;5.63;;;5.03;;
35961;SDS011;22044;48.298;10.008;2023-11-19T02:54:28;5.17;;;4.63;;
35961;SDS011;22044;48.298;10.008;2023-11-19T02:57:18;6.00;;;5.40;;
35961;SDS011;22044;48.298;10.008;2023-11-19T03:00:05;5.80;;;4.50;;
35961;SDS011;22044;48.298;10.008;2023-11-19T03:02:57;5.97;;;5.37;;
35961;SDS011;22044;48.298;10.008;2023-11-19T03:05:43;6.27;;;4.77;;
35961;SDS011;22044;48.298;10.008;2023-11-19T03:08:30;5.33;;;4.83;;
35961;SDS011;22044;48.298;10.008;2023-11-19T03:11:16;6.17;;;4.60;;
35961;SDS011;22044;48.298;10.008;2023-11-19T03:14:01;5.60;;;5.07;;
35961;SDS011;22044;48.298;10.008;2023-11-19T03:16:47;5.70;;;5.10;;
35961;SDS011;22044;48.298;10.008;2023-11-19T03:19:34;5.67;;;5.00;;
35961;SDS011;22044;48.298;10.008;2023-11-19T03:22:19;4.83;;;4.03;;
35961;SDS011;22044;48.298;10.008;2023-11-19T03:25:05;6.13;;;4.70;;
35961;SDS011;22044;48.298;10.008;2023-11-19T03:27:52;5.47;;;4.97;;
35961;SDS011;22044;48.298;10.008;2023-11-19T03:30:38;7.73;;;5.10;;
35961;SDS011;22044;48.298;10.008;2023-11-19T03:33:23;5.73;;;5.23;;
35961;SDS011;22044;48.298;10.008;2023-11-19T03:36:10;8.00;;;5.07;;
35961;SDS011;22044;48.298;10.008;2023-11-19T03:38:56;5.30;;;4.73;;
35961;SDS011;22044;48.298;10.008;2023-11-19T03:41:42;5.37;;;4.87;;
35961;SDS011;22044;48.298;10.008;2023-11-19T03:44:31;5.53;;;4.93;;
35961;SDS011;22044;48.298;10.008;2023-11-19T03:47:17;6.27;;;4.97;;
35961;SDS011;22044;48.298;10.008;2023-11-19T03:50:03;5.70;;;5.20;;
35961;SDS011;22044;48.298;10.008;2023-11-19T03:52:51;5.63;;;5.10;;
35961;SDS011;22044;48.298;10.008;2023-11-19T03:55:36;5.57;;;5.07;;
35961;SDS011;22044;48.298;10.008;2023-11-19T03:58:22;5.20;;;4.70;;
35961;SDS011;22044;48.298;10.008;2023-11-19T04:01:11;5.37;;;4.87;;
35961;SDS011;22044;48.298;10.008;2023-11-19T04:03:57;5.00;;;4.50;;
35961;SDS011;22044;48.298;10.008;2023-11-19T04:06:43;5.13;;;4.63;;
35961;SDS011;22044;48.298;10.008;2023-11-19T04:09:30;5.87;;;4.87;;
35961;SDS011;22044;48.298;10.008;2023-11-19T04:12:16;7.77;;;5.10;;
35961;SDS011;22044;48.298;10.008;2023-11-19T04:15:02;7.67;;;5.10;;
35961;SDS011;22044;48.298;10.008;2023-11-19T04:17:49;5.57;;;4.83;;
35961;SDS011;22044;48.298;10.008;2023-11-19T04:20:35;8.37;;;4.97;;
35961;SDS011;22044;48.298;10.008;2023-11-19T04:23:21;6.57;;;4.77;;
35961;SDS011;22044;48.298;10.008;2023-11-19T04:26:09;7.63;;;5.17;;
35961;SDS011;22044;48.298;10.008;2023-11-19T04:28:55;5.77;;;5.27;;
35961;SDS011;22044;48.298;10.008;2023-11-19T04:31:40;6.93;;;4.93;;
35961;SDS011;22044;48.298;10.008;2023-11-19T04:34:26;5.73;;;5.03;;
35961;SDS011;22044;48.298;10.008;2023-11-19T04:37:11;5.80;;;4.90;;
35961;SDS011;22044;48.298;10.008;2023-11-19T04:39:57;5.20;;;4.70;;
35961;SDS011;22044;48.298;10.008;2023-11-19T04:42:44;5.43;;;4.80;;
35961;SDS011;22044;48.298;10.008;2023-11-19T04:45:30;5.60;;;4.70;;
35961;SDS011;22044;48.298;10.008;2023-11-19T04:48:16;6.47;;;4.90;;
35961;SDS011;22044;48.298;10.008;2023-11-19T04:51:04;5.70;;;5.10;;
35961;SDS011;22044;48.298;10.008;2023-11-19T04:53:50;5.37;;;4.87;;
35961;SDS011;22044;48.298;10.008;2023-11-19T04:56:36;6.67;;;4.67;;
35961;SDS011;22044;48.298;10.008;2023-11-19T04:59:23;5.70;;;5.13;;
35961;SDS011;22044;48.298;10.008;2023-11-19T05:02:08;6.03;;;5.23;;
35961;SDS011;22044;48.298;10.008;2023-11-19T05:04:54;5.50;;;4.97;;
35961;SDS011;22044;48.298;10.008;2023-11-19T05:07:39;5.13;;;4.63;;
35961;SDS011;22044;48.298;10.008;2023-11-19T05:10:25;5.30;;;4.80;;
35961;SDS011;22044;48.298;10.008;2023-11-19T05:13:10;5.00;;;4.50;;
35961;SDS011;22044;48.298;10.008;2023-11-19T05:15:58;5.80;;;5.20;;
35961;SDS011;22044;48.298;10.008;2023-11-19T05:18:43;5.50;;;5.00;;
35961;SDS011;22044;48.298;10.008;2023-11-19T05:21:28;6.00;;;4.93;;
35961;SDS011;22044;48.298;10.008;2023-11-19T05:24:14;5.70;;;5.10;;
35961;SDS011;22044;48.298;10.008;2023-11-19T05:27:00;5.80;;;5.30;;
35961;SDS011;22044;48.298;10.008;2023-11-19T05:29:45;6.43;;;5.30;;
35961;SDS011;22044;48.298;10.008;2023-11-19T05:32:32;5.17;;;4.67;;
35961;SDS011;22044;48.298;10.008;2023-11-19T05:35:17;5.83;;;5.23;;
35961;SDS011;22044;48.298;10.008;2023-11-19T05:38:03;5.30;;;4.80;;
35961;SDS011;22044;48.298;10.008;2023-11-19T05:40:49;5.47;;;4.97;;
35961;SDS011;22044;48.298;10.008;2023-11-19T05:43:35;6.07;;;5.47;;
35961;SDS011;22044;48.298;10.008;2023-11-19T05:46:21;5.30;;;4.80;;
35961;SDS011;22044;48.298;10.008;2023-11-19T05:49:10;7.03;;;5.30;;
35961;SDS011;22044;48.298;10.008;2023-11-19T05:51:57;5.40;;;4.90;;
35961;SDS011;22044;48.298;10.008;2023-11-19T05:54:42;6.97;;;4.90;;
35961;SDS011;22044;48.298;10.008;2023-11-19T05:57:28;5.00;;;4.50;;
35961;SDS011;22044;48.298;10.008;2023-11-19T06:00:14;5.90;;;5.30;;
35961;SDS011;22044;48.298;10.008;2023-11-19T06:03:01;4.73;;;4.33;;
35961;SDS011;22044;48.298;10.008;2023-11-19T06:05:49;5.40;;;4.90;;
35961;SDS011;22044;48.298;10.008;2023-11-19T06:08:34;7.27;;;4.70;;
35961;SDS011;22044;48.298;10.008;2023-11-19T06:11:21;6.80;;;5.27;;
35961;SDS011;22044;48.298;10.008;2023-11-19T06:14:06;5.50;;;5.00;;
35961;SDS011;22044;48.298;10.008;2023-11-19T06:16:52;6.40;;;5.10;;
35961;SDS011;22044;48.298;10.008;2023-11-19T06:19:37;4.80;;;4.30;;
35961;SDS011;22044;48.298;10.008;2023-11-19T06:22:25;4.93;;;4.33;;
35961;SDS011;22044;48.298;10.008;2023-11-19T06:25:11;5.70;;;4.80;;
35961;SDS011;22044;48.298;10.008;2023-11-19T06:27:58;5.53;;;4.47;;
35961;SDS011;22044;48.298;10.008;2023-11-19T06:30:44;4.87;;;4.37;;
35961;SDS011;22044;48.298;10.008;2023-11-19T06:33:30;4.80;;;4.40;;
35961;SDS011;22044;48.298;10.008;2023-11-19T06:36:15;4.40;;;4.00;;
35961;SDS011;22044;48.298;10.008;2023-11-19T06:39:02;4.80;;;4.40;;
35961;SDS011;22044;48.298;10.008;2023-11-19T06:41:49;4.53;;;4.07;;
35961;SDS011;22044;48.298;10.008;2023-11-19T06:44:35;4.57;;;4.17;;
35961;SDS011;22044;48.298;10.008;2023-11-19T06:47:21;7.27;;;5.77;;
35961;SDS011;22044;48.298;10.008;2023-11-19T06:50:07;5.20;;;4.20;;
35961;SDS011;22044;48.298;10.008;2023-11-19T06:52:53;4.07;;;3.60;;
35961;SDS011;22044;48.298;10.008;2023-11-19T06:55:40;5.57;;;3.90;;
35961;SDS011;22044;48.298;10.008;2023-11-19T06:58:25;4.17;;;3.77;;
35961;SDS011;22044;48.298;10.008;2023-11-19T07:01:11;4.00;;;3.60;;
35961;SDS011;22044;48.298;10.008;2023-11-19T07:03:57;4.53;;;3.00;;
35961;SDS011;22044;48.298;10.008;2023-11-19T07:06:43;4.00;;;3.50;;
35961;SDS011;22044;48.298;10.008;2023-11-19T07:09:29;3.33;;;3.03;;
35961;SDS011;22044;48.298;10.008;2023-11-19T07:12:16;3.93;;;3.50;;
35961;SDS011;22044;48.298;10.008;2023-11-19T07:15:02;4.07;;;3.67;;
35961;SDS011;22044;48.298;10.008;2023-11-19T07:17:48;3.90;;;3.43;;
35961;SDS011;22044;48.298;10.008;2023-11-19T07:20:34;3.80;;;3.50;;
35961;SDS011;22044;48.298;10.008;2023-11-19T07:23:21;4.23;;;3.53;;
35961;SDS011;22044;48.298;10.008;2023-11-19T07:26:07;3.73;;;3.43;;
35961;SDS011;22044;48.298;10.008;2023-11-19T07:28:54;3.30;;;3.00;;
35961;SDS011;22044;48.298;10.008;2023-11-19T07:31:40;3.90;;;3.40;;
35961;SDS011;22044;48.298;10.008;2023-11-19T07:34:27;4.73;;;3.73;;
35961;SDS011;22044;48.298;10.008;2023-11-19T07:37:13;4.27;;;3.13;;
35961;SDS011;22044;48.298;10.008;2023-11-19T07:40:00;3.80;;;3.50;;
35961;SDS011;22044;48.298;10.008;2023-11-19T07:42:47;3.33;;;3.03;;
35961;SDS011;22044;48.298;10.008;2023-11-19T07:45:34;3.57;;;3.27;;
35961;SDS011;22044;48.298;10.008;2023-11-19T07:48:20;4.40;;;4.00;;
35961;SDS011;22044;48.298;10.008;2023-11-19T07:51:07;4.13;;;3.77;;
35961;SDS011;22044;48.298;10.008;2023-11-19T07:53:53;4.67;;;3.80;;
35961;SDS011;22044;48.298;10.008;2023-11-19T07:56:39;4.07;;;3.67;;
35961;SDS011;22044;48.298;10.008;2023-11-19T07:59:24;4.30;;;3.90;;
35961;SDS011;22044;48.298;10.008;2023-11-19T08:02:11;4.17;;;3.77;;
35961;SDS011;22044;48.298;10.008;2023-11-19T08:04:58;4.30;;;3.90;;
35961;SDS011;22044;48.298;10.008;2023-11-19T08:07:44;3.63;;;3.07;;
35961;SDS011;22044;48.298;10.008;2023-11-19T08:10:29;4.37;;;3.90;;
35961;SDS011;22044;48.298;10.008;2023-11-19T08:13:17;3.50;;;3.20;;
35961;SDS011;22044;48.298;10.008;2023-11-19T08:16:03;3.97;;;3.33;;
35961;SDS011;22044;48.298;10.008;2023-11-19T08:18:51;6.10;;;3.83;;
35961;SDS011;22044;48.298;10.008;2023-11-19T08:21:36;5.37;;;4.87;;
35961;SDS011;22044;48.298;10.008;2023-11-19T08:24:22;4.20;;;3.80;;
35961;SDS011;22044;48.298;10.008;2023-11-19T08:27:08;4.93;;;4.47;;
35961;SDS011;22044;48.298;10.008;2023-11-19T08:29:53;3.50;;;3.20;;
35961;SDS011;22044;48.298;10.008;2023-11-19T08:32:40;4.83;;;4.20;;
35961;SDS011;22044;48.298;10.008;2023-11-19T08:35:27;3.43;;;3.13;;
35961;SDS011;22044;48.298;10.008;2023-11-19T08:38:13;3.40;;;3.10;;
35961;SDS011;22044;48.298;10.008;2023-11-19T08:40:58;3.60;;;3.30;;
35961;SDS011;22044;48.298;10.008;2023-11-19T08:43:45;4.03;;;3.37;;
35961;SDS011;22044;48.298;10.008;2023-11-19T08:46:30;3.83;;;3.13;;
35961;SDS011;22044;48.298;10.008;2023-11-19T08:49:16;3.50;;;3.20;;
35961;SDS011;22044;48.298;10.008;2023-11-19T08:52:03;16.27;;;13.77;;
35961;SDS011;22044;48.298;10.008;2023-11-19T08:54:51;3.77;;;3.23;;
35961;SDS011;22044;48.298;10.008;2023-11-19T08:57:36;3.70;;;3.40;;
35961;SDS011;22044;48.298;10.008;2023-11-19T09:00:22;3.90;;;3.60;;
35961;SDS011;22044;48.298;10.008;2023-11-19T09:03:07;4.17;;;3.87;;
35961;SDS011;22044;48.298;10.008;2023-11-19T09:05:53;2.97;;;2.67;;
35961;SDS011;22044;48.298;10.008;2023-11-19T09:08:41;3.20;;;2.90;;
35961;SDS011;22044;48.298;10.008;2023-11-19T09:11:27;3.80;;;3.40;;
35961;SDS011;22044;48.298;10.008;2023-11-19T09:14:12;4.60;;;4.20;;
35961;SDS011;22044;48.298;10.008;2023-11-19T09:16:58;3.60;;;3.30;;
35961;SDS011;22044;48.298;10.008;2023-11-19T09:19:44;4.43;;;4.03;;
35961;SDS011;22044;48.298;10.008;2023-11-19T09:22:30;3.30;;;3.00;;
35961;SDS011;22044;48.298;10.008;2023-11-19T09:25:17;3.67;;;3.23;;
35961;SDS011;22044;48.298;10.008;2023-11-19T09:28:03;3.50;;;3.20;;
35961;SDS011;22044;48.298;10.008;2023-11-19T09:30:49;3.40;;;3.10;;
35961;SDS011;22044;48.298;10.008;2023-11-19T09:33:34;3.10;;;2.80;;
35961;SDS011;22044;48.298;10.008;2023-11-19T09:36:20;3.83;;;2.87;;
35961;SDS011;22044;48.298;10.008;2023-11-19T09:39:06;2.90;;;2.70;;
35961;SDS011;22044;48.298;10.008;2023-11-19T09:41:53;3.43;;;2.63;;
35961;SDS011;22044;48.298;10.008;2023-11-19T09:44:39;2.73;;;2.53;;
35961;SDS011;22044;48.298;10.008;2023-11-19T09:47:27;2.37;;;2.17;;
35961;SDS011;22044;48.298;10.008;2023-11-19T09:50:14;2.50;;;2.30;;
35961;SDS011;22044;48.298;10.008;2023-11-19T09:53:02;3.20;;;1.80;;
35961;SDS011;22044;48.298;10.008;2023-11-19T09:55:47;2.27;;;2.00;;
35961;SDS011;22044;48.298;10.008;2023-11-19T09:58:34;2.90;;;1.50;;
35961;SDS011;22044;48.298;10.008;2023-11-19T10:01:20;1.87;;;1.60;;
35961;SDS011;22044;48.298;10.008;2023-11-19T10:04:05;2.60;;;1.57;;
35961;SDS011;22044;48.298;10.008;2023-11-19T10:06:51;3.03;;;1.40;;
35961;SDS011;22044;48.298;10.008;2023-11-19T10:09:37;1.30;;;1.20;;
35961;SDS011;22044;48.298;10.008;2023-11-19T10:12:23;1.30;;;1.20;;
35961;SDS011;22044;48.298;10.008;2023-11-19T10:15:11;1.70;;;1.10;;
35961;SDS011;22044;48.298;10.008;2023-11-19T10:18:05;0.93;;;0.93;;
35961;SDS011;22044;48.298;10.008;2023-11-19T10:20:51;1.27;;;1.17;;
35961;SDS011;22044;48.298;10.008;2023-11-19T10:23:47;1.23;;;0.83;;
35961;SDS011;22044;48.298;10.008;2023-11-19T10:26:36;1.10;;;1.00;;
35961;SDS011;22044;48.298;10.008;2023-11-19T10:29:21;1.43;;;1.00;;
35961;SDS011;22044;48.298;10.008;2023-11-19T10:32:10;1.73;;;1.10;;
35961;SDS011;22044;48.298;10.008;2023-11-19T10:35:04;1.00;;;0.90;;
35961;SDS011;22044;48.298;10.008;2023-11-19T10:37:51;1.20;;;1.10;;
35961;SDS011;22044;48.298;10.008;2023-11-19T10:40:39;1.00;;;1.00;;
35961;SDS011;22044;48.298;10.008;2023-11-19T10:43:25;1.00;;;1.00;;
35961;SDS011;22044;48.298;10.008;2023-11-19T10:46:12;1.00;;;0.90;;
35961;SDS011;22044;48.298;10.008;2023-11-19T10:49:00;0.80;;;0.80;;
35961;SDS011;22044;48.298;10.008;2023-11-19T10:51:45;0.97;;;0.93;;
35961;SDS011;22044;48.298;10.008;2023-11-19T10:54:31;1.33;;;0.80;;
35961;SDS011;22044;48.298;10.008;2023-11-19T10:57:19;0.87;;;0.80;;
35961;SDS011;22044;48.298;10.008;2023-11-19T11:00:07;0.90;;;0.90;;
35961;SDS011;22044;48.298;10.008;2023-11-19T11:02:56;0.80;;;0.80;;
35961;SDS011;22044;48.298;10.008;2023-11-19T11:05:47;0.90;;;0.80;;
35961;SDS011;22044;48.298;10.008;2023-11-19T11:08:34;1.27;;;1.10;;
35961;SDS011;22044;48.298;10.008;2023-11-19T11:11:22;1.17;;;0.70;;
35961;SDS011;22044;48.298;10.008;2023-11-19T11:14:07;0.80;;;0.80;;
35961;SDS011;22044;48.298;10.008;2023-11-19T11:16:54;2.03;;;0.90;;
35961;SDS011;22044;48.298;10.008;2023-11-19T11:19:42;1.00;;;0.83;;
35961;SDS011;22044;48.298;10.008;2023-11-19T11:22:30;0.93;;;0.90;;
35961;SDS011;22044;48.298;10.008;2023-11-19T11:25:28;0.90;;;0.90;;
35961;SDS011;22044;48.298;10.008;2023-11-19T11:28:27;0.73;;;0.73;;
35961;SDS011;22044;48.298;10.008;2023-11-19T11:31:24;0.80;;;0.80;;
35961;SDS011;22044;48.298;10.008;2023-11-19T11:34:25;0.70;;;0.70;;
35961;SDS011;22044;48.298;10.008;2023-11-19T11:37:32;0.73;;;0.73;;
35961;SDS011;22044;48.298;10.008;2023-11-19T11:40:19;0.77;;;0.77;;
35961;SDS011;22044;48.298;10.008;2023-11-19T11:43:20;0.80;;;0.80;;
35961;SDS011;22044;48.298;10.008;2023-11-19T11:49:39;2.40;;;0.80;;
35961;SDS011;22044;48.298;10.008;2023-11-19T11:52:25;0.97;;;0.97;;
35961;SDS011;22044;48.298;10.008;2023-11-19T11:55:12;0.80;;;0.80;;
35961;SDS011;22044;48.298;10.008;2023-11-19T11:57:57;0.83;;;0.83;;
35961;SDS011;22044;48.298;10.008;2023-11-19T12:00:44;1.13;;;0.70;;
35961;SDS011;22044;48.298;10.008;2023-11-19T12:03:32;2.50;;;1.00;;
35961;SDS011;22044;48.298;10.008;2023-11-19T12:06:20;0.77;;;0.77;;
35961;SDS011;22044;48.298;10.008;2023-11-19T12:09:06;4.00;;;0.73;;
35961;SDS011;22044;48.298;10.008;2023-11-19T12:11:55;0.63;;;0.63;;
35961;SDS011;22044;48.298;10.008;2023-11-19T12:15:00;1.10;;;0.87;;
35961;SDS011;22044;48.298;10.008;2023-11-19T12:17:49;1.63;;;0.80;;
35961;SDS011;22044;48.298;10.008;2023-11-19T12:20:35;0.70;;;0.70;;
35961;SDS011;22044;48.298;10.008;2023-11-19T12:23:21;0.73;;;0.73;;
35961;SDS011;22044;48.298;10.008;2023-11-19T12:26:07;0.87;;;0.87;;
35961;SDS011;22044;48.298;10.008;2023-11-19T12:28:58;0.60;;;0.60;;
35961;SDS011;22044;48.298;10.008;2023-11-19T12:31:44;0.67;;;0.67;;
35961;SDS011;22044;48.298;10.008;2023-11-19T12:34:39;0.90;;;0.80;;
35961;SDS011;22044;48.298;10.008;2023-11-19T12:37:25;0.80;;;0.80;;
35961;SDS011;22044;48.298;10.008;2023-11-19T12:40:12;0.80;;;0.80;;
35961;SDS011;22044;48.298;10.008;2023-11-19T12:42:59;0.73;;;0.73;;
35961;SDS011;22044;48.298;10.008;2023-11-19T12:45:46;0.60;;;0.60;;
35961;SDS011;22044;48.298;10.008;2023-11-19T12:48:32;0.60;;;0.60;;
35961;SDS011;22044;48.298;10.008;2023-11-19T12:51:18;0.80;;;0.80;;
35961;SDS011;22044;48.298;10.008;2023-11-19T12:54:05;0.70;;;0.70;;
35961;SDS011;22044;48.298;10.008;2023-11-19T12:56:51;0.70;;;0.70;;
35961;SDS011;22044;48.298;10.008;2023-11-19T12:59:37;1.87;;;0.80;;
35961;SDS011;22044;48.298;10.008;2023-11-19T13:02:24;1.07;;;0.60;;
35961;SDS011;22044;48.298;10.008;2023-11-19T13:05:30;0.60;;;0.60;;
35961;SDS011;22044;48.298;10.008;2023-11-19T13:08:18;0.63;;;0.63;;
35961;SDS011;22044;48.298;10.008;2023-11-19T13:11:04;3.27;;;0.80;;
35961;SDS011;22044;48.298;10.008;2023-11-19T13:13:54;1.00;;;0.70;;
35961;SDS011;22044;48.298;10.008;2023-11-19T13:16:40;1.93;;;0.80;;
35961;SDS011;22044;48.298;10.008;2023-11-19T13:19:28;0.80;;;0.80;;
35961;SDS011;22044;48.298;10.008;2023-11-19T13:22:13;0.70;;;0.70;;
35961;SDS011;22044;48.298;10.008;2023-11-19T13:24:59;1.57;;;0.80;;
35961;SDS011;22044;48.298;10.008;2023-11-19T13:27:46;1.07;;;0.97;;
35961;SDS011;22044;48.298;10.008;2023-11-19T13:30:32;0.80;;;0.80;;
35961;SDS011;22044;48.298;10.008;2023-11-19T13:33:18;2.37;;;0.60;;
35961;SDS011;22044;48.298;10.008;2023-11-19T13:36:05;1.10;;;0.63;;
35961;SDS011;22044;48.298;10.008;2023-11-19T13:38:51;0.70;;;0.70;;
35961;SDS011;22044;48.298;10.008;2023-11-19T13:41:42;2.07;;;1.00;;
35961;SDS011;22044;48.298;10.008;2023-11-19T13:44:28;1.60;;;0.70;;
35961;SDS011;22044;48.298;10.008;2023-11-19T13:47:13;0.93;;;0.80;;
35961;SDS011;22044;48.298;10.008;2023-11-19T13:49:59;0.70;;;0.70;;
35961;SDS011;22044;48.298;10.008;2023-11-19T13:52:46;4.10;;;1.20;;
35961;SDS011;22044;48.298;10.008;2023-11-19T13:55:31;0.70;;;0.60;;
35961;SDS011;22044;48.298;10.008;2023-11-19T13:58:17;1.50;;;0.80;;
35961;SDS011;22044;48.298;10.008;2023-11-19T14:01:03;2.30;;;0.80;;
35961;SDS011;22044;48.298;10.008;2023-11-19T14:03:49;1.00;;;0.90;;
35961;SDS011;22044;48.298;10.008;2023-11-19T14:06:34;1.07;;;0.70;;
35961;SDS011;22044;48.298;10.008;2023-11-19T14:09:21;0.80;;;0.80;;
35961;SDS011;22044;48.298;10.008;2023-11-19T14:12:07;3.60;;;3.10;;
35961;SDS011;22044;48.298;10.008;2023-11-19T14:14:53;0.80;;;0.80;;
35961;SDS011;22044;48.298;10.008;2023-11-19T14:17:39;3.43;;;0.80;;
35961;SDS011;22044;48.298;10.008;2023-11-19T14:20:25;0.83;;;0.83;;
35961;SDS011;22044;48.298;10.008;2023-11-19T14:23:11;1.17;;;1.07;;
35961;SDS011;22044;48.298;10.008;2023-11-19T14:25:58;1.17;;;0.90;;
35961;SDS011;22044;48.298;10.008;2023-11-19T14:28:43;0.90;;;0.90;;
35961;SDS011;22044;48.298;10.008;2023-11-19T14:31:29;0.80;;;0.70;;
35961;SDS011;22044;48.298;10.008;2023-11-19T14:34:14;1.13;;;1.03;;
35961;SDS011;22044;48.298;10.008;2023-11-19T14:37:00;0.83;;;0.80;;
35961;SDS011;22044;48.298;10.008;2023-11-19T14:39:46;0.80;;;0.80;;
35961;SDS011;22044;48.298;10.008;2023-11-19T14:42:35;2.50;;;1.20;;
35961;SDS011;22044;48.298;10.008;2023-11-19T14:45:20;0.80;;;0.73;;
35961;SDS011;22044;48.298;10.008;2023-11-19T14:48:06;1.13;;;0.97;;
35961;SDS011;22044;48.298;10.008;2023-11-19T14:50:52;1.20;;;0.80;;
35961;SDS011;22044;48.298;10.008;2023-11-19T14:53:38;1.10;;;1.00;;
35961;SDS011;22044;48.298;10.008;2023-11-19T14:56:23;0.90;;;0.90;;
35961;SDS011;22044;48.298;10.008;2023-11-19T14:59:10;1.30;;;0.70;;
35961;SDS011;22044;48.298;10.008;2023-11-19T15:01:56;0.80;;;0.80;;
35961;SDS011;22044;48.298;10.008;2023-11-19T15:04:42;1.20;;;1.10;;
35961;SDS011;22044;48.298;10.008;2023-11-19T15:07:28;3.80;;;3.37;;
35961;SDS011;22044;48.298;10.008;2023-11-19T15:10:14;3.93;;;2.90;;
35961;SDS011;22044;48.298;10.008;2023-11-19T15:12:59;17.70;;;12.93;;
35961;SDS011;22044;48.298;10.008;2023-11-19T15:15:47;2.50;;;1.10;;
35961;SDS011;22044;48.298;10.008;2023-11-19T15:18:32;1.30;;;0.97;;
35961;SDS011;22044;48.298;10.008;2023-11-19T15:21:18;1.67;;;1.50;;
35961;SDS011;22044;48.298;10.008;2023-11-19T15:24:04;0.90;;;0.90;;
35961;SDS011;22044;48.298;10.008;2023-11-19T15:26:51;1.10;;;1.00;;
35961;SDS011;22044;48.298;10.008;2023-11-19T15:29:36;1.30;;;1.00;;
35961;SDS011;22044;48.298;10.008;2023-11-19T15:32:24;2.30;;;0.80;;
35961;SDS011;22044;48.298;10.008;2023-11-19T15:35:10;1.40;;;0.80;;
35961;SDS011;22044;48.298;10.008;2023-11-19T15:37:55;0.70;;;0.70;;
35961;SDS011;22044;48.298;10.008;2023-11-19T15:40:41;0.90;;;0.90;;
35961;SDS011;22044;48.298;10.008;2023-11-19T15:43:27;1.00;;;0.90;;
35961;SDS011;22044;48.298;10.008;2023-11-19T15:46:14;1.93;;;1.30;;
35961;SDS011;22044;48.298;10.008;2023-11-19T15:49:01;1.20;;;1.10;;
35961;SDS011;22044;48.298;10.008;2023-11-19T15:51:47;0.83;;;0.83;;
35961;SDS011;22044;48.298;10.008;2023-11-19T15:54:32;1.60;;;1.50;;
35961;SDS011;22044;48.298;10.008;2023-11-19T15:57:18;0.90;;;0.90;;
35961;SDS011;22044;48.298;10.008;2023-11-19T16:00:04;1.90;;;0.90;;
35961;SDS011;22044;48.298;10.008;2023-11-19T16:02:54;1.20;;;1.10;;
35961;SDS011;22044;48.298;10.008;2023-11-19T16:05:41;1.33;;;1.03;;
35961;SDS011;22044;48.298;10.008;2023-11-19T16:08:27;2.03;;;1.00;;
35961;SDS011;22044;48.298;10.008;2023-11-19T16:11:13;1.20;;;1.10;;
35961;SDS011;22044;48.298;10.008;2023-11-19T16:13:58;1.53;;;1.00;;
35961;SDS011;22044;48.298;10.008;2023-11-19T16:16:45;2.10;;;1.33;;
35961;SDS011;22044;48.298;10.008;2023-11-19T16:19:30;1.30;;;1.20;;
35961;SDS011;22044;48.298;10.008;2023-11-19T16:22:19;2.17;;;1.97;;
35961;SDS011;22044;48.298;10.008;2023-11-19T16:25:05;2.53;;;2.33;;
35961;SDS011;22044;48.298;10.008;2023-11-19T16:27:52;2.07;;;1.93;;
35961;SDS011;22044;48.298;10.008;2023-11-19T16:30:39;1.60;;;1.40;;
35961;SDS011;22044;48.298;10.008;2023-11-19T16:33:25;1.60;;;1.50;;